createdAt,value
2019-02-17T00:00:03.301Z,26
2019-02-17T00:00:07.736Z,25
2019-02-17T00:00:10.030Z,26
2019-02-17T00:00:14.475Z,24
2019-02-17T00:00:20.110Z,25
2019-02-17T00:00:24.595Z,23
2019-02-17T00:00:26.887Z,24
2019-02-17T00:00:37.943Z,23
2019-02-17T00:00:40.175Z,24
2019-02-17T00:00:49.048Z,25
2019-02-17T00:00:51.303Z,26
2019-02-17T00:00:54.639Z,24
2019-02-17T00:00:58.014Z,23
2019-02-17T00:01:00.349Z,22
2019-02-17T00:01:05.897Z,23
2019-02-17T00:01:09.245Z,25
2019-02-17T00:01:12.616Z,26
2019-02-17T00:01:17.080Z,25
2019-02-17T00:01:19.324Z,26
2019-02-17T00:01:20.409Z,27
2019-02-17T00:01:27.074Z,28
2019-02-17T00:01:32.492Z,27
2019-02-17T00:01:34.750Z,26
2019-02-17T00:01:38.155Z,27
2019-02-17T00:01:41.505Z,26
2019-02-17T00:01:46.100Z,27
2019-02-17T00:01:48.314Z,26
2019-02-17T00:01:52.857Z,27
2019-02-17T00:01:58.359Z,26
2019-02-17T00:02:09.420Z,25
2019-02-17T00:02:12.800Z,24
2019-02-17T00:02:22.814Z,23
2019-02-17T00:02:26.131Z,24
2019-02-17T00:02:29.561Z,25
2019-02-17T00:02:35.035Z,23
2019-02-17T00:02:39.454Z,25
2019-02-17T00:02:49.300Z,22
2019-02-17T00:02:52.646Z,23
2019-02-17T00:03:03.346Z,22
2019-02-17T00:03:09.969Z,23
2019-02-17T00:03:12.235Z,22
2019-02-17T00:03:24.412Z,23
2019-02-17T00:03:28.877Z,22
2019-02-17T00:03:31.126Z,23
2019-02-17T00:03:36.556Z,24
2019-02-17T00:03:40.008Z,22
2019-02-17T00:03:49.950Z,23
2019-02-17T00:03:54.390Z,24
2019-02-17T00:03:57.863Z,23
2019-02-17T00:04:04.592Z,25
2019-02-17T00:04:10.161Z,24
2019-02-17T00:04:15.593Z,25
2019-02-17T00:04:18.995Z,26
2019-02-17T00:04:24.493Z,27
2019-02-17T00:04:27.951Z,28
2019-02-17T00:04:33.551Z,27
2019-02-17T00:04:35.813Z,26
2019-02-17T00:04:40.097Z,25
2019-02-17T00:04:43.442Z,24
2019-02-17T00:04:46.819Z,25
2019-02-17T00:04:51.213Z,24
2019-02-17T00:04:54.590Z,25
2019-02-17T00:05:00.137Z,24
2019-02-17T00:05:03.770Z,25
2019-02-17T00:05:09.240Z,24
2019-02-17T00:05:13.717Z,23
2019-02-17T00:05:19.302Z,22
2019-02-17T00:05:21.486Z,23
2019-02-17T00:05:23.680Z,24
2019-02-17T00:05:27.007Z,25
2019-02-17T00:05:32.570Z,24
2019-02-17T00:05:35.817Z,25
2019-02-17T00:05:40.373Z,24
2019-02-17T00:05:43.822Z,25
2019-02-17T00:05:46.109Z,24
2019-02-17T00:05:48.420Z,23
2019-02-17T00:05:51.649Z,25
2019-02-17T00:06:01.438Z,24
2019-02-17T00:06:03.613Z,25
2019-02-17T00:06:13.571Z,24
2019-02-17T00:06:17.976Z,23
2019-02-17T00:06:25.612Z,24
2019-02-17T00:06:30.031Z,25
2019-02-17T00:06:37.748Z,26
2019-02-17T00:06:40.070Z,25
2019-02-17T00:06:41.236Z,27
2019-02-17T00:06:50.098Z,26
2019-02-17T00:06:55.589Z,27
2019-02-17T00:06:57.858Z,28
2019-02-17T00:07:02.269Z,27
2019-02-17T00:07:06.818Z,26
2019-02-17T00:07:11.202Z,27
2019-02-17T00:07:13.462Z,26
2019-02-17T00:07:16.912Z,25
2019-02-17T00:07:19.207Z,26
2019-02-17T00:07:29.190Z,25
2019-02-17T00:07:31.397Z,24
2019-02-17T00:07:37.157Z,25
2019-02-17T00:07:41.614Z,24
2019-02-17T00:07:48.317Z,25
2019-02-17T00:07:51.617Z,24
2019-02-17T00:07:53.846Z,23
2019-02-17T00:07:57.137Z,24
2019-02-17T00:08:01.655Z,25
2019-02-17T00:08:05.949Z,26
2019-02-17T00:08:08.201Z,24
2019-02-17T00:08:11.520Z,23
2019-02-17T00:08:14.892Z,22
2019-02-17T00:08:19.394Z,23
2019-02-17T00:08:21.690Z,24
2019-02-17T00:08:26.107Z,23
2019-02-17T00:08:30.497Z,24
2019-02-17T00:08:35.005Z,23
2019-02-17T00:08:41.664Z,22
2019-02-17T00:08:48.297Z,23
2019-02-17T00:08:58.136Z,22
2019-02-17T00:09:04.861Z,24
2019-02-17T00:09:10.379Z,25
2019-02-17T00:09:12.633Z,26
2019-02-17T00:09:18.112Z,27
2019-02-17T00:09:27.081Z,29
2019-02-17T00:09:33.372Z,28
2019-02-17T00:09:35.688Z,29
2019-02-17T00:09:40.165Z,28
2019-02-17T00:09:42.434Z,27
2019-02-17T00:09:48.012Z,26
2019-02-17T00:09:50.365Z,27
2019-02-17T00:09:52.490Z,26
2019-02-17T00:09:56.896Z,24
2019-02-17T00:10:02.542Z,26
2019-02-17T00:10:04.769Z,25
2019-02-17T00:10:11.308Z,26
2019-02-17T00:10:22.460Z,25
2019-02-17T00:10:28.017Z,24
2019-02-17T00:10:31.303Z,26
2019-02-17T00:10:36.064Z,27
2019-02-17T00:10:50.105Z,25
2019-02-17T00:10:53.507Z,26
2019-02-17T00:10:57.893Z,25
2019-02-17T00:10:59.961Z,23
2019-02-17T00:11:06.682Z,24
2019-02-17T00:11:13.291Z,23
2019-02-17T00:11:14.343Z,24
2019-02-17T00:11:24.273Z,23
2019-02-17T00:11:32.166Z,24
2019-02-17T00:11:48.612Z,25
2019-02-17T00:11:49.749Z,26
2019-02-17T00:11:52.685Z,24
2019-02-17T00:12:02.587Z,23
2019-02-17T00:12:12.596Z,22
2019-02-17T00:12:25.599Z,23
2019-02-17T00:12:33.397Z,22
2019-02-17T00:12:37.872Z,23
2019-02-17T00:12:43.529Z,24
2019-02-17T00:12:50.265Z,23
2019-02-17T00:12:53.607Z,22
2019-02-17T00:12:56.945Z,23
2019-02-17T00:12:59.271Z,24
2019-02-17T00:13:03.787Z,26
2019-02-17T00:13:07.162Z,24
2019-02-17T00:13:12.728Z,25
2019-02-17T00:13:16.106Z,26
2019-02-17T00:13:18.334Z,25
2019-02-17T00:13:20.535Z,23
2019-02-17T00:13:23.896Z,24
2019-02-17T00:13:30.604Z,23
2019-02-17T00:13:36.143Z,24
2019-02-17T00:13:39.491Z,25
2019-02-17T00:13:45.014Z,22
2019-02-17T00:13:48.424Z,20
2019-02-17T00:13:52.973Z,21
2019-02-17T00:13:54.093Z,20
2019-02-17T00:13:59.655Z,21
2019-02-17T00:14:05.131Z,20
2019-02-17T00:14:11.641Z,19
2019-02-17T00:14:14.924Z,21
2019-02-17T00:14:26.133Z,22
2019-02-17T00:14:28.451Z,21
2019-02-17T00:14:32.839Z,22
2019-02-17T00:14:36.226Z,21
2019-02-17T00:14:40.685Z,20
2019-02-17T00:14:46.701Z,19
2019-02-17T00:14:48.998Z,20
2019-02-17T00:14:51.326Z,19
2019-02-17T00:14:56.849Z,20
2019-02-17T00:15:03.607Z,21
2019-02-17T00:15:09.188Z,22
2019-02-17T00:15:13.762Z,23
2019-02-17T00:15:15.970Z,24
2019-02-17T00:15:21.488Z,23
2019-02-17T00:15:31.383Z,22
2019-02-17T00:15:42.574Z,23
2019-02-17T00:15:46.967Z,22
2019-02-17T00:15:49.177Z,23
2019-02-17T00:15:52.596Z,24
2019-02-17T00:15:56.043Z,25
2019-02-17T00:15:59.416Z,26
2019-02-17T00:16:04.966Z,27
2019-02-17T00:16:07.273Z,29
2019-02-17T00:16:10.650Z,28
2019-02-17T00:16:12.955Z,27
2019-02-17T00:16:15.161Z,28
2019-02-17T00:16:19.717Z,27
2019-02-17T00:16:23.071Z,26
2019-02-17T00:16:25.377Z,25
2019-02-17T00:16:27.629Z,26
2019-02-17T00:16:34.416Z,25
2019-02-17T00:16:37.714Z,26
2019-02-17T00:16:43.208Z,27
2019-02-17T00:16:45.716Z,28
2019-02-17T00:16:46.825Z,27
2019-02-17T00:16:52.355Z,26
2019-02-17T00:16:56.846Z,25
2019-02-17T00:17:00.157Z,23
2019-02-17T00:17:03.488Z,24
2019-02-17T00:17:06.984Z,22
2019-02-17T00:17:09.248Z,21
2019-02-17T00:17:11.562Z,20
2019-02-17T00:17:13.730Z,21
2019-02-17T00:17:15.939Z,22
2019-02-17T00:17:19.242Z,21
2019-02-17T00:17:27.042Z,22
2019-02-17T00:17:32.559Z,23
2019-02-17T00:17:34.813Z,25
2019-02-17T00:17:37.061Z,26
2019-02-17T00:17:42.547Z,27
2019-02-17T00:17:44.846Z,28
2019-02-17T00:17:45.993Z,27
2019-02-17T00:17:48.162Z,26
2019-02-17T00:17:50.360Z,27
2019-02-17T00:17:53.611Z,25
2019-02-17T00:17:54.753Z,26
2019-02-17T00:18:00.263Z,27
2019-02-17T00:18:05.827Z,26
2019-02-17T00:18:09.218Z,27
2019-02-17T00:18:11.494Z,26
2019-02-17T00:18:14.851Z,27
2019-02-17T00:18:17.138Z,26
2019-02-17T00:18:20.599Z,24
2019-02-17T00:18:23.980Z,23
2019-02-17T00:18:27.372Z,24
2019-02-17T00:18:30.703Z,25
2019-02-17T00:18:32.958Z,24
2019-02-17T00:18:36.375Z,23
2019-02-17T00:18:39.676Z,22
2019-02-17T00:18:43.056Z,23
2019-02-17T00:18:46.412Z,24
2019-02-17T00:18:48.692Z,22
2019-02-17T00:18:50.993Z,23
2019-02-17T00:18:53.328Z,22
2019-02-17T00:18:57.841Z,23
2019-02-17T00:19:01.177Z,22
2019-02-17T00:19:04.556Z,23
2019-02-17T00:19:07.986Z,24
2019-02-17T00:19:11.283Z,22
2019-02-17T00:19:14.654Z,23
2019-02-17T00:19:15.793Z,24
2019-02-17T00:19:18.064Z,25
2019-02-17T00:19:21.431Z,26
2019-02-17T00:19:23.643Z,25
2019-02-17T00:19:29.129Z,26
2019-02-17T00:19:32.511Z,25
2019-02-17T00:19:35.863Z,26
2019-02-17T00:19:39.258Z,24
2019-02-17T00:19:41.546Z,25
2019-02-17T00:19:43.798Z,26
2019-02-17T00:19:53.599Z,25
2019-02-17T00:19:56.989Z,26
2019-02-17T00:20:07.961Z,25
2019-02-17T00:20:10.364Z,24
2019-02-17T00:20:14.816Z,23
2019-02-17T00:20:17.017Z,22
2019-02-17T00:20:19.183Z,21
2019-02-17T00:20:21.502Z,22
2019-02-17T00:20:23.694Z,23
2019-02-17T00:20:27.058Z,22
2019-02-17T00:20:28.197Z,23
2019-02-17T00:20:31.569Z,24
2019-02-17T00:20:34.896Z,26
2019-02-17T00:20:38.189Z,25
2019-02-17T00:20:41.504Z,26
2019-02-17T00:20:49.149Z,28
2019-02-17T00:20:51.342Z,27
2019-02-17T00:20:54.694Z,26
2019-02-17T00:20:59.124Z,25
2019-02-17T00:21:02.483Z,27
2019-02-17T00:21:05.790Z,26
2019-02-17T00:21:10.226Z,25
2019-02-17T00:21:13.518Z,24
2019-02-17T00:21:19.592Z,23
2019-02-17T00:21:22.928Z,24
2019-02-17T00:21:25.099Z,25
2019-02-17T00:21:28.378Z,24
2019-02-17T00:21:31.710Z,25
2019-02-17T00:21:37.215Z,24
2019-02-17T00:21:39.493Z,23
2019-02-17T00:21:42.806Z,24
2019-02-17T00:21:46.140Z,22
2019-02-17T00:21:49.465Z,23
2019-02-17T00:21:52.865Z,22
2019-02-17T00:21:56.199Z,23
2019-02-17T00:22:01.730Z,22
2019-02-17T00:22:05.017Z,21
2019-02-17T00:22:11.586Z,22
2019-02-17T00:22:16.001Z,21
2019-02-17T00:22:19.267Z,22
2019-02-17T00:22:22.582Z,24
2019-02-17T00:22:24.890Z,23
2019-02-17T00:22:26.054Z,25
2019-02-17T00:22:29.391Z,24
2019-02-17T00:22:32.705Z,23
2019-02-17T00:22:34.898Z,24
2019-02-17T00:22:38.183Z,25
2019-02-17T00:22:42.680Z,26
2019-02-17T00:22:46.035Z,27
2019-02-17T00:22:49.416Z,26
2019-02-17T00:22:52.984Z,25
2019-02-17T00:22:55.542Z,26
2019-02-17T00:22:59.935Z,25
2019-02-17T00:23:05.421Z,26
2019-02-17T00:23:09.718Z,25
2019-02-17T00:23:12.025Z,24
2019-02-17T00:23:15.328Z,23
2019-02-17T00:23:19.652Z,24
2019-02-17T00:23:22.911Z,22
2019-02-17T00:23:25.173Z,23
2019-02-17T00:23:28.538Z,22
2019-02-17T00:23:31.882Z,23
2019-02-17T00:23:35.145Z,24
2019-02-17T00:23:38.448Z,23
2019-02-17T00:23:41.824Z,24
2019-02-17T00:23:44.077Z,25
2019-02-17T00:23:46.286Z,24
2019-02-17T00:23:49.648Z,23
2019-02-17T00:23:51.895Z,24
2019-02-17T00:23:55.243Z,23
2019-02-17T00:23:57.454Z,24
2019-02-17T00:24:00.748Z,25
2019-02-17T00:24:04.069Z,24
2019-02-17T00:24:06.254Z,23
2019-02-17T00:24:08.492Z,24
2019-02-17T00:24:10.671Z,23
2019-02-17T00:24:12.845Z,24
2019-02-17T00:24:16.293Z,25
2019-02-17T00:24:19.638Z,24
2019-02-17T00:24:21.867Z,22
2019-02-17T00:24:24.109Z,23
2019-02-17T00:24:28.598Z,24
2019-02-17T00:24:30.831Z,23
2019-02-17T00:24:36.355Z,22
2019-02-17T00:24:39.692Z,23
2019-02-17T00:24:43.002Z,22
2019-02-17T00:24:45.277Z,21
2019-02-17T00:24:47.413Z,22
2019-02-17T00:24:48.492Z,21
2019-02-17T00:24:51.814Z,20
2019-02-17T00:24:56.041Z,21
2019-02-17T00:24:58.248Z,22
2019-02-17T00:25:02.627Z,23
2019-02-17T00:25:07.095Z,24
2019-02-17T00:25:10.430Z,23
2019-02-17T00:25:14.822Z,24
2019-02-17T00:25:24.872Z,23
2019-02-17T00:25:29.213Z,24
2019-02-17T00:25:35.802Z,23
2019-02-17T00:25:38.086Z,24
2019-02-17T00:25:43.619Z,25
2019-02-17T00:25:44.771Z,24
2019-02-17T00:25:46.970Z,23
2019-02-17T00:25:55.582Z,22
2019-02-17T00:25:57.870Z,21
2019-02-17T00:26:00.076Z,20
2019-02-17T00:26:03.335Z,21
2019-02-17T00:26:12.148Z,22
2019-02-17T00:26:14.382Z,23
2019-02-17T00:26:17.720Z,24
2019-02-17T00:26:21.044Z,23
2019-02-17T00:26:23.272Z,25
2019-02-17T00:26:27.633Z,24
2019-02-17T00:26:29.887Z,23
2019-02-17T00:26:30.984Z,24
2019-02-17T00:26:34.267Z,25
2019-02-17T00:26:38.360Z,24
2019-02-17T00:26:41.678Z,25
2019-02-17T00:26:47.184Z,24
2019-02-17T00:26:51.607Z,23
2019-02-17T00:26:52.810Z,24
2019-02-17T00:26:59.030Z,22
2019-02-17T00:27:09.451Z,23
2019-02-17T00:27:24.895Z,22
2019-02-17T00:27:28.298Z,23
2019-02-17T00:27:30.552Z,22
2019-02-17T00:27:35.255Z,20
2019-02-17T00:27:38.576Z,21
2019-02-17T00:27:42.009Z,22
2019-02-17T00:27:45.946Z,21
2019-02-17T00:27:49.303Z,23
2019-02-17T00:27:51.484Z,24
2019-02-17T00:27:54.793Z,23
2019-02-17T00:27:57.066Z,22
2019-02-17T00:28:00.390Z,23
2019-02-17T00:28:03.652Z,24
2019-02-17T00:28:08.093Z,25
2019-02-17T00:28:11.370Z,26
2019-02-17T00:28:13.646Z,27
2019-02-17T00:28:16.863Z,28
2019-02-17T00:28:21.320Z,27
2019-02-17T00:28:23.601Z,28
2019-02-17T00:28:24.798Z,27
2019-02-17T00:28:25.896Z,28
2019-02-17T00:28:28.170Z,26
2019-02-17T00:28:31.599Z,25
2019-02-17T00:28:34.992Z,24
2019-02-17T00:28:38.458Z,25
2019-02-17T00:28:40.683Z,24
2019-02-17T00:28:43.976Z,23
2019-02-17T00:28:47.605Z,22
2019-02-17T00:29:01.324Z,20
2019-02-17T00:29:04.589Z,21
2019-02-17T00:29:06.829Z,20
2019-02-17T00:29:09.147Z,21
2019-02-17T00:29:12.513Z,22
2019-02-17T00:29:17.017Z,21
2019-02-17T00:29:20.321Z,22
2019-02-17T00:29:23.949Z,23
2019-02-17T00:29:27.290Z,22
2019-02-17T00:29:30.542Z,23
2019-02-17T00:29:32.883Z,24
2019-02-17T00:29:35.179Z,23
2019-02-17T00:29:38.545Z,24
2019-02-17T00:29:40.772Z,25
2019-02-17T00:29:43.082Z,24
2019-02-17T00:29:47.501Z,23
2019-02-17T00:29:50.877Z,21
2019-02-17T00:29:54.226Z,20
2019-02-17T00:29:56.538Z,21
2019-02-17T00:29:59.869Z,20
2019-02-17T00:30:02.115Z,21
2019-02-17T00:30:05.484Z,20
2019-02-17T00:30:07.696Z,19
2019-02-17T00:30:09.898Z,20
2019-02-17T00:30:13.342Z,21
2019-02-17T00:30:16.760Z,22
2019-02-17T00:30:21.144Z,23
2019-02-17T00:30:24.552Z,24
2019-02-17T00:30:26.851Z,23
2019-02-17T00:30:32.466Z,24
2019-02-17T00:30:37.487Z,26
2019-02-17T00:30:40.865Z,25
2019-02-17T00:30:44.208Z,24
2019-02-17T00:30:47.545Z,23
2019-02-17T00:30:50.996Z,24
2019-02-17T00:30:53.270Z,25
2019-02-17T00:30:55.518Z,26
2019-02-17T00:31:00.733Z,25
2019-02-17T00:31:02.958Z,24
2019-02-17T00:31:06.400Z,25
2019-02-17T00:31:08.648Z,24
2019-02-17T00:31:10.825Z,25
2019-02-17T00:31:13.048Z,24
2019-02-17T00:31:15.263Z,25
2019-02-17T00:31:18.479Z,24
2019-02-17T00:31:21.819Z,25
2019-02-17T00:31:25.134Z,26
2019-02-17T00:31:30.656Z,25
2019-02-17T00:31:34.951Z,24
2019-02-17T00:31:36.133Z,23
2019-02-17T00:31:39.385Z,22
2019-02-17T00:31:41.587Z,21
2019-02-17T00:31:42.699Z,22
2019-02-17T00:31:47.172Z,23
2019-02-17T00:31:50.584Z,24
2019-02-17T00:31:53.999Z,23
2019-02-17T00:31:56.200Z,22
2019-02-17T00:32:01.790Z,21
2019-02-17T00:32:05.111Z,19
2019-02-17T00:32:06.228Z,20
2019-02-17T00:32:09.622Z,21
2019-02-17T00:32:12.875Z,23
2019-02-17T00:32:17.295Z,24
2019-02-17T00:32:20.669Z,25
2019-02-17T00:32:22.903Z,24
2019-02-17T00:32:26.310Z,25
2019-02-17T00:32:29.943Z,26
2019-02-17T00:32:33.274Z,27
2019-02-17T00:32:38.711Z,26
2019-02-17T00:32:43.127Z,27
2019-02-17T00:32:54.220Z,26
2019-02-17T00:32:58.670Z,25
2019-02-17T00:33:03.166Z,22
2019-02-17T00:33:08.694Z,23
2019-02-17T00:33:11.022Z,22
2019-02-17T00:33:18.775Z,24
2019-02-17T00:33:22.170Z,25
2019-02-17T00:33:32.116Z,26
2019-02-17T00:33:38.740Z,25
2019-02-17T00:33:42.021Z,26
2019-02-17T00:33:48.196Z,25
2019-02-17T00:33:51.503Z,24
2019-02-17T00:33:55.905Z,23
2019-02-17T00:33:59.192Z,24
2019-02-17T00:34:04.639Z,23
2019-02-17T00:34:17.186Z,24
2019-02-17T00:34:19.495Z,25
2019-02-17T00:34:23.908Z,24
2019-02-17T00:34:34.888Z,25
2019-02-17T00:34:38.243Z,26
2019-02-17T00:34:52.470Z,27
2019-02-17T00:34:55.785Z,26
2019-02-17T00:35:00.313Z,25
2019-02-17T00:35:04.869Z,26
2019-02-17T00:35:08.310Z,24
2019-02-17T00:35:12.757Z,23
2019-02-17T00:35:16.053Z,24
2019-02-17T00:35:22.717Z,23
2019-02-17T00:35:28.454Z,24
2019-02-17T00:35:33.942Z,22
2019-02-17T00:35:37.281Z,23
2019-02-17T00:35:40.496Z,24
2019-02-17T00:35:42.754Z,23
2019-02-17T00:35:49.850Z,22
2019-02-17T00:35:55.403Z,23
2019-02-17T00:36:04.099Z,22
2019-02-17T00:36:07.391Z,23
2019-02-17T00:36:09.611Z,24
2019-02-17T00:36:11.876Z,23
2019-02-17T00:36:15.263Z,22
2019-02-17T00:36:18.658Z,23
2019-02-17T00:36:21.000Z,24
2019-02-17T00:36:27.595Z,25
2019-02-17T00:36:31.850Z,26
2019-02-17T00:36:36.259Z,25
2019-02-17T00:36:38.465Z,26
2019-02-17T00:36:42.892Z,25
2019-02-17T00:36:47.276Z,26
2019-02-17T00:36:50.633Z,27
2019-02-17T00:36:53.985Z,25
2019-02-17T00:36:56.235Z,24
2019-02-17T00:36:57.349Z,25
2019-02-17T00:36:59.520Z,26
2019-02-17T00:37:07.204Z,25
2019-02-17T00:37:10.572Z,24
2019-02-17T00:37:13.944Z,25
2019-02-17T00:37:16.113Z,26
2019-02-17T00:37:19.463Z,25
2019-02-17T00:37:21.629Z,26
2019-02-17T00:37:26.051Z,25
2019-02-17T00:37:30.496Z,24
2019-02-17T00:37:33.806Z,23
2019-02-17T00:37:38.219Z,24
2019-02-17T00:37:40.548Z,23
2019-02-17T00:37:42.794Z,22
2019-02-17T00:37:45.030Z,23
2019-02-17T00:37:49.452Z,24
2019-02-17T00:37:54.011Z,23
2019-02-17T00:37:56.297Z,24
2019-02-17T00:37:58.518Z,25
2019-02-17T00:38:00.756Z,26
2019-02-17T00:38:05.210Z,25
2019-02-17T00:38:07.432Z,24
2019-02-17T00:38:10.816Z,25
2019-02-17T00:38:14.096Z,27
2019-02-17T00:38:18.538Z,28
2019-02-17T00:38:20.800Z,27
2019-02-17T00:38:24.229Z,29
2019-02-17T00:38:28.655Z,30
2019-02-17T00:38:30.909Z,28
2019-02-17T00:38:34.275Z,27
2019-02-17T00:38:39.891Z,25
2019-02-17T00:38:44.308Z,26
2019-02-17T00:38:46.578Z,25
2019-02-17T00:38:52.036Z,24
2019-02-17T00:38:57.521Z,23
2019-02-17T00:38:59.748Z,22
2019-02-17T00:39:03.042Z,24
2019-02-17T00:39:06.326Z,25
2019-02-17T00:39:09.743Z,26
2019-02-17T00:39:15.187Z,27
2019-02-17T00:39:17.454Z,26
2019-02-17T00:39:18.621Z,27
2019-02-17T00:39:20.786Z,26
2019-02-17T00:39:23.065Z,25
2019-02-17T00:39:26.501Z,26
2019-02-17T00:39:34.078Z,28
2019-02-17T00:39:36.342Z,27
2019-02-17T00:39:39.654Z,28
2019-02-17T00:39:41.884Z,29
2019-02-17T00:39:45.149Z,30
2019-02-17T00:39:53.944Z,28
2019-02-17T00:39:58.387Z,29
2019-02-17T00:40:01.697Z,27
2019-02-17T00:40:03.909Z,28
2019-02-17T00:40:07.302Z,26
2019-02-17T00:40:09.527Z,25
2019-02-17T00:40:12.871Z,24
2019-02-17T00:40:15.061Z,23
2019-02-17T00:40:19.480Z,24
2019-02-17T00:40:22.856Z,23
2019-02-17T00:40:27.351Z,22
2019-02-17T00:40:31.805Z,23
2019-02-17T00:40:36.189Z,22
2019-02-17T00:40:40.528Z,25
2019-02-17T00:40:43.939Z,26
2019-02-17T00:40:47.269Z,27
2019-02-17T00:40:49.447Z,28
2019-02-17T00:40:55.008Z,26
2019-02-17T00:40:59.551Z,27
2019-02-17T00:41:02.981Z,25
2019-02-17T00:41:06.236Z,23
2019-02-17T00:41:11.821Z,24
2019-02-17T00:41:16.366Z,23
2019-02-17T00:41:20.884Z,21
2019-02-17T00:41:23.143Z,23
2019-02-17T00:41:26.501Z,24
2019-02-17T00:41:28.800Z,25
2019-02-17T00:41:33.385Z,26
2019-02-17T00:41:41.819Z,25
2019-02-17T00:41:49.662Z,26
2019-02-17T00:41:51.981Z,24
2019-02-17T00:41:57.613Z,25
2019-02-17T00:42:02.092Z,23
2019-02-17T00:42:06.421Z,22
2019-02-17T00:42:08.559Z,23
2019-02-17T00:42:15.196Z,24
2019-02-17T00:42:19.657Z,25
2019-02-17T00:42:21.951Z,24
2019-02-17T00:42:25.224Z,23
2019-02-17T00:42:28.483Z,24
2019-02-17T00:42:30.723Z,23
2019-02-17T00:42:38.398Z,22
2019-02-17T00:42:40.667Z,23
2019-02-17T00:42:43.979Z,22
2019-02-17T00:42:47.316Z,23
2019-02-17T00:42:49.600Z,24
2019-02-17T00:42:54.113Z,25
2019-02-17T00:42:57.545Z,26
2019-02-17T00:43:00.875Z,25
2019-02-17T00:43:04.220Z,26
2019-02-17T00:43:08.704Z,25
2019-02-17T00:43:10.988Z,26
2019-02-17T00:43:15.445Z,27
2019-02-17T00:43:17.560Z,26
2019-02-17T00:43:24.066Z,27
2019-02-17T00:43:25.205Z,26
2019-02-17T00:43:29.541Z,27
2019-02-17T00:43:34.030Z,25
2019-02-17T00:43:38.493Z,23
2019-02-17T00:43:41.790Z,22
2019-02-17T00:43:45.171Z,21
2019-02-17T00:43:51.986Z,22
2019-02-17T00:44:05.479Z,29
2019-02-17T00:44:10.056Z,30
2019-02-17T00:44:13.447Z,28
2019-02-17T00:44:22.268Z,29
2019-02-17T00:44:25.694Z,30
2019-02-17T00:44:29.089Z,29
2019-02-17T00:44:31.367Z,28
2019-02-17T00:44:33.628Z,27
2019-02-17T00:44:37.048Z,30
2019-02-17T00:44:40.543Z,32
2019-02-17T00:44:43.862Z,33
2019-02-17T00:44:47.176Z,34
2019-02-17T00:44:49.406Z,33
2019-02-17T00:44:51.585Z,35
2019-02-17T00:44:54.903Z,34
2019-02-17T00:44:58.266Z,32
2019-02-17T00:45:00.534Z,31
2019-02-17T00:45:03.931Z,33
2019-02-17T00:45:06.079Z,32
2019-02-17T00:45:09.355Z,31
2019-02-17T00:45:12.693Z,30
2019-02-17T00:45:14.981Z,31
2019-02-17T00:45:19.467Z,32
2019-02-17T00:45:21.672Z,31
2019-02-17T00:45:22.831Z,30
2019-02-17T00:45:25.141Z,31
2019-02-17T00:45:28.450Z,30
2019-02-17T00:45:31.888Z,29
2019-02-17T00:45:37.548Z,30
2019-02-17T00:45:39.862Z,29
2019-02-17T00:45:43.271Z,28
2019-02-17T00:45:45.495Z,27
2019-02-17T00:45:52.242Z,26
2019-02-17T00:45:55.803Z,25
2019-02-17T00:45:59.186Z,24
2019-02-17T00:46:02.495Z,23
2019-02-17T00:46:04.774Z,22
2019-02-17T00:46:07.066Z,23
2019-02-17T00:46:11.580Z,24
2019-02-17T00:46:14.979Z,25
2019-02-17T00:46:17.202Z,24
2019-02-17T00:46:22.669Z,25
2019-02-17T00:46:24.922Z,27
2019-02-17T00:46:30.676Z,28
2019-02-17T00:46:32.870Z,27
2019-02-17T00:46:36.164Z,26
2019-02-17T00:46:39.453Z,27
2019-02-17T00:46:42.848Z,26
2019-02-17T00:46:46.237Z,25
2019-02-17T00:46:48.403Z,24
2019-02-17T00:46:50.585Z,25
2019-02-17T00:46:51.625Z,24
2019-02-17T00:46:52.730Z,23
2019-02-17T00:46:56.340Z,24
2019-02-17T00:47:05.220Z,22
2019-02-17T00:47:11.829Z,23
2019-02-17T00:47:16.286Z,22
2019-02-17T00:47:20.788Z,25
2019-02-17T00:47:23.067Z,28
2019-02-17T00:47:26.465Z,31
2019-02-17T00:47:28.725Z,32
2019-02-17T00:47:34.218Z,33
2019-02-17T00:47:37.598Z,31
2019-02-17T00:47:42.033Z,30
2019-02-17T00:47:45.409Z,28
2019-02-17T00:47:48.749Z,27
2019-02-17T00:47:55.303Z,24
2019-02-17T00:47:59.653Z,23
2019-02-17T00:48:01.970Z,22
2019-02-17T00:48:04.193Z,23
2019-02-17T00:48:08.925Z,22
2019-02-17T00:48:14.082Z,21
2019-02-17T00:48:17.642Z,20
2019-02-17T00:48:25.322Z,19
2019-02-17T00:48:30.802Z,20
2019-02-17T00:48:41.919Z,19
2019-02-17T00:48:47.505Z,20
2019-02-17T00:48:52.046Z,21
2019-02-17T00:48:54.250Z,22
2019-02-17T00:48:58.770Z,21
2019-02-17T00:49:02.629Z,20
2019-02-17T00:49:04.901Z,21
2019-02-17T00:49:08.275Z,24
2019-02-17T00:49:12.727Z,26
2019-02-17T00:49:14.985Z,27
2019-02-17T00:49:17.163Z,28
2019-02-17T00:49:19.363Z,29
2019-02-17T00:49:28.235Z,28
2019-02-17T00:49:31.702Z,27
2019-02-17T00:49:35.163Z,25
2019-02-17T00:49:38.593Z,23
2019-02-17T00:49:40.947Z,22
2019-02-17T00:49:43.161Z,21
2019-02-17T00:49:46.516Z,22
2019-02-17T00:49:49.869Z,23
2019-02-17T00:49:55.391Z,24
2019-02-17T00:49:57.626Z,22
2019-02-17T00:50:00.293Z,23
2019-02-17T00:50:03.664Z,24
2019-02-17T00:50:04.825Z,23
2019-02-17T00:50:05.905Z,22
2019-02-17T00:50:09.279Z,21
2019-02-17T00:50:10.494Z,22
2019-02-17T00:50:12.804Z,23
2019-02-17T00:50:15.112Z,22
2019-02-17T00:50:18.932Z,21
2019-02-17T00:50:22.286Z,22
2019-02-17T00:50:25.663Z,21
2019-02-17T00:50:37.951Z,20
2019-02-17T00:50:43.986Z,19
2019-02-17T00:50:47.368Z,21
2019-02-17T00:50:50.796Z,22
2019-02-17T00:50:53.066Z,23
2019-02-17T00:50:56.338Z,24
2019-02-17T00:50:59.607Z,25
2019-02-17T00:51:01.890Z,23
2019-02-17T00:51:05.164Z,25
2019-02-17T00:51:11.695Z,26
2019-02-17T00:51:16.180Z,27
2019-02-17T00:51:19.534Z,28
2019-02-17T00:51:21.798Z,27
2019-02-17T00:51:24.047Z,29
2019-02-17T00:51:29.496Z,28
2019-02-17T00:51:32.798Z,27
2019-02-17T00:51:35.038Z,26
2019-02-17T00:51:38.550Z,25
2019-02-17T00:51:40.829Z,26
2019-02-17T00:51:43.701Z,25
2019-02-17T00:51:45.977Z,24
2019-02-17T00:51:48.273Z,25
2019-02-17T00:51:52.641Z,24
2019-02-17T00:51:56.004Z,25
2019-02-17T00:51:58.260Z,24
2019-02-17T00:51:59.335Z,25
2019-02-17T00:52:02.683Z,24
2019-02-17T00:52:07.058Z,23
2019-02-17T00:52:11.400Z,21
2019-02-17T00:52:14.785Z,23
2019-02-17T00:52:17.082Z,22
2019-02-17T00:52:19.255Z,21
2019-02-17T00:52:22.679Z,22
2019-02-17T00:52:25.049Z,23
2019-02-17T00:52:28.383Z,24
2019-02-17T00:52:31.763Z,23
2019-02-17T00:52:35.209Z,22
2019-02-17T00:52:38.622Z,23
2019-02-17T00:52:45.126Z,24
2019-02-17T00:52:48.427Z,23
2019-02-17T00:52:51.727Z,22
2019-02-17T00:52:56.538Z,21
2019-02-17T00:52:57.752Z,22
2019-02-17T00:52:58.840Z,21
2019-02-17T00:53:03.267Z,22
2019-02-17T00:53:06.639Z,23
2019-02-17T00:53:10.301Z,24
2019-02-17T00:53:14.914Z,23
2019-02-17T00:53:16.362Z,24
2019-02-17T00:53:18.703Z,25
2019-02-17T00:53:21.994Z,26
2019-02-17T00:53:25.369Z,25
2019-02-17T00:53:27.628Z,26
2019-02-17T00:53:32.114Z,28
2019-02-17T00:53:34.400Z,29
2019-02-17T00:53:36.686Z,28
2019-02-17T00:53:38.967Z,27
2019-02-17T00:53:42.455Z,26
2019-02-17T00:53:45.754Z,27
2019-02-17T00:53:49.179Z,25
2019-02-17T00:53:53.608Z,23
2019-02-17T00:53:56.950Z,22
2019-02-17T00:53:59.274Z,21
2019-02-17T00:54:02.755Z,22
2019-02-17T00:54:09.333Z,21
2019-02-17T00:54:12.572Z,22
2019-02-17T00:54:14.853Z,23
2019-02-17T00:54:17.166Z,22
2019-02-17T00:54:21.601Z,23
2019-02-17T00:54:26.032Z,22
2019-02-17T00:54:29.392Z,23
2019-02-17T00:54:32.735Z,24
2019-02-17T00:54:36.117Z,23
2019-02-17T00:54:41.364Z,22
2019-02-17T00:54:45.965Z,21
2019-02-17T00:54:48.220Z,20
2019-02-17T00:54:52.537Z,21
2019-02-17T00:54:54.782Z,20
2019-02-17T00:54:59.290Z,19
2019-02-17T00:55:08.194Z,20
2019-02-17T00:55:11.549Z,21
2019-02-17T00:55:14.803Z,22
2019-02-17T00:55:17.109Z,21
2019-02-17T00:55:20.532Z,20
2019-02-17T00:55:24.960Z,23
2019-02-17T00:55:27.238Z,22
2019-02-17T00:55:29.471Z,23
2019-02-17T00:55:31.805Z,25
2019-02-17T00:55:36.265Z,23
2019-02-17T00:55:41.547Z,24
2019-02-17T00:55:53.477Z,23
2019-02-17T00:55:56.561Z,22
2019-02-17T00:56:00.023Z,24
2019-02-17T00:56:02.279Z,25
2019-02-17T00:56:05.628Z,24
2019-02-17T00:56:10.150Z,25
2019-02-17T00:56:12.413Z,24
2019-02-17T00:56:14.678Z,23